Western Neb. Rgnl,William B. Heilig Airport Scottsbluff US
ICAO: KBFF
IATA: BFF
Category: Medium
Scheduled Services: Yes

Elevation: 3967 ft
TransAlt. 18000 ft.

Airport Communications:
ASOS:121.025
DENVER CNTR:127.95
COLUMBUS RDO:122.6
CTAF/UNICOM:123

KBFF Zoom In..

If you have problems with the map follow the link
https://www.worldairports.se/pages/airport.php?
ICAO=KBFF

Runways:

(A) RW 05 length 8002 ft width 150 ft
---- / hdg 58

(B) RW 12 length 8279 ft width 150 ft
ILS 110.35 / hdg 126

(C) RW 23 length 8002 ft width 150 ft
---- / hdg 238

(D) RW 30 length 8279 ft width 150 ft
ILS 109.30 / hdg 306

Location; KBFF
Day. 17 / Time. 20.53 Zulu
* Altimeter: 29.64
* Temperature: 06° c. 42.8°f.
* Wind from: 230° Speed 05 kn.
Dewpoint: 01° c.
Visibility: 10 Statute Miles.
Clouds: Few 4400 ft.
Clouds: Scattered 7500 ft.
Clouds: Overcast 11000 ft.

KBFF 172053Z AUTO 23005KT 10SM FEW044 SCT075 OVC110 06/01 A2964 RMK AO2 RAB17E39 SLP048 P0000 60000 T00610006 58016


Wind From 230°
Speed 05 kn.

 
 
jpsmedia worldairports.se 2020   terms of use